sensor_id;sensor_type;location;lat;lon;timestamp;temperature;humidity
8231;DHT22;4156;50.908;6.974;2023-02-28T00:01:07;3.90;99.90
8231;DHT22;4156;50.908;6.974;2023-02-28T00:03:33;3.90;99.90
8231;DHT22;4156;50.908;6.974;2023-02-28T00:06:04;3.90;99.90
8231;DHT22;4156;50.908;6.974;2023-02-28T00:08:30;3.90;99.90
8231;DHT22;4156;50.908;6.974;2023-02-28T00:10:55;3.90;99.90
8231;DHT22;4156;50.908;6.974;2023-02-28T00:13:21;3.80;99.90
8231;DHT22;4156;50.908;6.974;2023-02-28T00:15:46;3.80;99.90
8231;DHT22;4156;50.908;6.974;2023-02-28T00:18:12;3.80;99.90
8231;DHT22;4156;50.908;6.974;2023-02-28T00:20:38;3.80;99.90
8231;DHT22;4156;50.908;6.974;2023-02-28T00:23:04;3.80;99.90
8231;DHT22;4156;50.908;6.974;2023-02-28T00:25:29;3.70;99.90
8231;DHT22;4156;50.908;6.974;2023-02-28T00:27:55;3.70;99.90
8231;DHT22;4156;50.908;6.974;2023-02-28T00:30:22;3.70;99.90
8231;DHT22;4156;50.908;6.974;2023-02-28T00:32:49;3.60;99.90
8231;DHT22;4156;50.908;6.974;2023-02-28T00:35:15;3.70;99.90
8231;DHT22;4156;50.908;6.974;2023-02-28T00:37:41;3.60;99.90
8231;DHT22;4156;50.908;6.974;2023-02-28T00:40:08;3.60;99.90
8231;DHT22;4156;50.908;6.974;2023-02-28T00:42:35;3.60;99.90
8231;DHT22;4156;50.908;6.974;2023-02-28T00:45:00;3.60;99.90
8231;DHT22;4156;50.908;6.974;2023-02-28T00:47:26;3.50;99.90
8231;DHT22;4156;50.908;6.974;2023-02-28T00:49:52;3.50;99.90
8231;DHT22;4156;50.908;6.974;2023-02-28T00:52:17;3.60;99.90
8231;DHT22;4156;50.908;6.974;2023-02-28T00:54:43;3.50;99.90
8231;DHT22;4156;50.908;6.974;2023-02-28T00:57:08;3.50;99.90
8231;DHT22;4156;50.908;6.974;2023-02-28T00:59:34;3.50;99.90
8231;DHT22;4156;50.908;6.974;2023-02-28T01:02:00;3.50;99.90
8231;DHT22;4156;50.908;6.974;2023-02-28T01:04:25;3.50;99.90
8231;DHT22;4156;50.908;6.974;2023-02-28T01:06:51;3.50;99.90
8231;DHT22;4156;50.908;6.974;2023-02-28T01:09:16;3.40;99.90
8231;DHT22;4156;50.908;6.974;2023-02-28T01:11:42;3.40;99.90
8231;DHT22;4156;50.908;6.974;2023-02-28T01:14:13;3.50;99.90
8231;DHT22;4156;50.908;6.974;2023-02-28T01:16:39;3.40;99.90
8231;DHT22;4156;50.908;6.974;2023-02-28T01:19:04;3.40;99.90
8231;DHT22;4156;50.908;6.974;2023-02-28T01:21:30;3.40;99.90
8231;DHT22;4156;50.908;6.974;2023-02-28T01:23:57;3.40;99.90
8231;DHT22;4156;50.908;6.974;2023-02-28T01:26:23;3.40;99.90
8231;DHT22;4156;50.908;6.974;2023-02-28T01:28:50;3.40;99.90
8231;DHT22;4156;50.908;6.974;2023-02-28T01:31:17;3.40;99.90
8231;DHT22;4156;50.908;6.974;2023-02-28T01:33:43;3.40;99.90
8231;DHT22;4156;50.908;6.974;2023-02-28T01:36:12;3.40;99.90
8231;DHT22;4156;50.908;6.974;2023-02-28T01:38:38;3.40;99.90
8231;DHT22;4156;50.908;6.974;2023-02-28T01:41:05;3.40;99.90
8231;DHT22;4156;50.908;6.974;2023-02-28T01:43:52;3.40;99.90
8231;DHT22;4156;50.908;6.974;2023-02-28T01:46:18;3.30;99.90
8231;DHT22;4156;50.908;6.974;2023-02-28T01:48:56;3.30;99.90
8231;DHT22;4156;50.908;6.974;2023-02-28T01:51:46;3.30;99.90
8231;DHT22;4156;50.908;6.974;2023-02-28T01:54:16;3.30;99.90
8231;DHT22;4156;50.908;6.974;2023-02-28T01:56:47;3.30;99.90
8231;DHT22;4156;50.908;6.974;2023-02-28T01:59:51;3.30;99.90
8231;DHT22;4156;50.908;6.974;2023-02-28T02:02:12;3.30;99.90
8231;DHT22;4156;50.908;6.974;2023-02-28T02:04:45;3.30;99.90
8231;DHT22;4156;50.908;6.974;2023-02-28T02:07:13;3.30;99.90
8231;DHT22;4156;50.908;6.974;2023-02-28T02:09:39;3.30;99.90
8231;DHT22;4156;50.908;6.974;2023-02-28T02:12:26;3.20;99.90
8231;DHT22;4156;50.908;6.974;2023-02-28T02:15:12;3.20;99.90
8231;DHT22;4156;50.908;6.974;2023-02-28T02:17:43;3.20;99.90
8231;DHT22;4156;50.908;6.974;2023-02-28T02:20:30;3.20;99.90
8231;DHT22;4156;50.908;6.974;2023-02-28T02:25:56;3.10;99.90
8231;DHT22;4156;50.908;6.974;2023-02-28T02:28:55;3.10;99.90
8231;DHT22;4156;50.908;6.974;2023-02-28T02:31:51;3.10;99.90
8231;DHT22;4156;50.908;6.974;2023-02-28T02:37:47;3.10;99.90
8231;DHT22;4156;50.908;6.974;2023-02-28T02:40:20;3.10;99.90
8231;DHT22;4156;50.908;6.974;2023-02-28T02:45:27;3.00;99.90
8231;DHT22;4156;50.908;6.974;2023-02-28T02:48:01;3.00;99.90
8231;DHT22;4156;50.908;6.974;2023-02-28T02:50:35;3.10;99.90
8231;DHT22;4156;50.908;6.974;2023-02-28T02:53:03;3.00;99.90
8231;DHT22;4156;50.908;6.974;2023-02-28T02:55:32;3.00;99.90
8231;DHT22;4156;50.908;6.974;2023-02-28T02:58:04;3.40;99.90
8231;DHT22;4156;50.908;6.974;2023-02-28T03:00:43;3.00;99.90
8231;DHT22;4156;50.908;6.974;2023-02-28T03:03:12;3.00;99.90
8231;DHT22;4156;50.908;6.974;2023-02-28T03:05:48;3.00;99.90
8231;DHT22;4156;50.908;6.974;2023-02-28T03:08:14;3.00;99.90
8231;DHT22;4156;50.908;6.974;2023-02-28T03:10:44;2.90;99.90
8231;DHT22;4156;50.908;6.974;2023-02-28T03:16:32;2.90;99.90
8231;DHT22;4156;50.908;6.974;2023-02-28T03:19:34;2.90;99.90
8231;DHT22;4156;50.908;6.974;2023-02-28T03:22:44;2.80;99.90
8231;DHT22;4156;50.908;6.974;2023-02-28T03:25:20;2.90;99.90
8231;DHT22;4156;50.908;6.974;2023-02-28T03:27:54;2.90;99.90
8231;DHT22;4156;50.908;6.974;2023-02-28T03:32:57;2.80;99.90
8231;DHT22;4156;50.908;6.974;2023-02-28T03:35:30;2.80;99.90
8231;DHT22;4156;50.908;6.974;2023-02-28T03:38:10;2.80;99.90
8231;DHT22;4156;50.908;6.974;2023-02-28T03:40:43;2.80;99.90
8231;DHT22;4156;50.908;6.974;2023-02-28T03:43:14;2.80;99.90
8231;DHT22;4156;50.908;6.974;2023-02-28T03:45:41;2.80;99.90
8231;DHT22;4156;50.908;6.974;2023-02-28T03:48:15;2.80;99.90
8231;DHT22;4156;50.908;6.974;2023-02-28T03:50:45;2.80;99.90
8231;DHT22;4156;50.908;6.974;2023-02-28T03:53:21;2.80;99.90
8231;DHT22;4156;50.908;6.974;2023-02-28T03:55:53;2.80;99.90
8231;DHT22;4156;50.908;6.974;2023-02-28T04:01:58;2.80;99.90
8231;DHT22;4156;50.908;6.974;2023-02-28T04:04:07;2.80;99.90
8231;DHT22;4156;50.908;6.974;2023-02-28T04:06:34;2.80;99.90
8231;DHT22;4156;50.908;6.974;2023-02-28T04:09:00;2.70;99.90
8231;DHT22;4156;50.908;6.974;2023-02-28T04:11:40;2.70;99.90
8231;DHT22;4156;50.908;6.974;2023-02-28T04:14:08;2.60;99.90
8231;DHT22;4156;50.908;6.974;2023-02-28T04:16:36;2.70;99.90
8231;DHT22;4156;50.908;6.974;2023-02-28T04:19:06;2.60;99.90
8231;DHT22;4156;50.908;6.974;2023-02-28T04:21:40;2.70;99.90
8231;DHT22;4156;50.908;6.974;2023-02-28T04:24:10;2.60;99.90
8231;DHT22;4156;50.908;6.974;2023-02-28T04:26:40;2.60;99.90
8231;DHT22;4156;50.908;6.974;2023-02-28T04:29:07;2.60;99.90
8231;DHT22;4156;50.908;6.974;2023-02-28T04:31:33;2.60;99.90
8231;DHT22;4156;50.908;6.974;2023-02-28T04:33:59;2.60;99.90
8231;DHT22;4156;50.908;6.974;2023-02-28T04:36:25;2.60;99.90
8231;DHT22;4156;50.908;6.974;2023-02-28T04:38:51;2.60;99.90
8231;DHT22;4156;50.908;6.974;2023-02-28T04:41:17;2.60;99.90
8231;DHT22;4156;50.908;6.974;2023-02-28T04:43:42;2.50;99.90
8231;DHT22;4156;50.908;6.974;2023-02-28T04:46:08;2.50;99.90
8231;DHT22;4156;50.908;6.974;2023-02-28T04:48:36;2.50;99.90
8231;DHT22;4156;50.908;6.974;2023-02-28T04:51:07;2.50;99.90
8231;DHT22;4156;50.908;6.974;2023-02-28T04:53:33;2.50;99.90
8231;DHT22;4156;50.908;6.974;2023-02-28T04:55:59;2.40;99.90
8231;DHT22;4156;50.908;6.974;2023-02-28T04:58:24;2.40;99.90
8231;DHT22;4156;50.908;6.974;2023-02-28T05:00:51;2.40;99.90
8231;DHT22;4156;50.908;6.974;2023-02-28T05:03:17;2.40;99.90
8231;DHT22;4156;50.908;6.974;2023-02-28T05:05:42;2.30;99.90
8231;DHT22;4156;50.908;6.974;2023-02-28T05:08:08;2.30;99.90
8231;DHT22;4156;50.908;6.974;2023-02-28T05:10:35;2.30;99.90
8231;DHT22;4156;50.908;6.974;2023-02-28T05:13:01;2.30;99.90
8231;DHT22;4156;50.908;6.974;2023-02-28T05:15:26;2.30;99.90
8231;DHT22;4156;50.908;6.974;2023-02-28T05:17:52;2.30;99.90
8231;DHT22;4156;50.908;6.974;2023-02-28T05:20:17;2.20;99.90
8231;DHT22;4156;50.908;6.974;2023-02-28T05:22:43;2.30;99.90
8231;DHT22;4156;50.908;6.974;2023-02-28T05:25:15;2.30;99.90
8231;DHT22;4156;50.908;6.974;2023-02-28T05:27:41;2.20;99.90
8231;DHT22;4156;50.908;6.974;2023-02-28T05:30:07;2.30;99.90
8231;DHT22;4156;50.908;6.974;2023-02-28T05:32:38;2.30;99.90
8231;DHT22;4156;50.908;6.974;2023-02-28T05:35:08;2.20;99.90
8231;DHT22;4156;50.908;6.974;2023-02-28T05:37:34;2.20;99.90
8231;DHT22;4156;50.908;6.974;2023-02-28T05:40:00;2.30;99.90
8231;DHT22;4156;50.908;6.974;2023-02-28T05:42:26;2.20;99.90
8231;DHT22;4156;50.908;6.974;2023-02-28T05:44:51;2.30;99.90
8231;DHT22;4156;50.908;6.974;2023-02-28T05:47:17;2.20;99.90
8231;DHT22;4156;50.908;6.974;2023-02-28T05:49:43;2.20;99.90
8231;DHT22;4156;50.908;6.974;2023-02-28T05:52:08;2.30;99.90
8231;DHT22;4156;50.908;6.974;2023-02-28T05:54:34;2.20;99.90
8231;DHT22;4156;50.908;6.974;2023-02-28T05:56:59;2.30;99.90
8231;DHT22;4156;50.908;6.974;2023-02-28T05:59:25;2.20;99.90
8231;DHT22;4156;50.908;6.974;2023-02-28T06:01:50;2.20;99.90
8231;DHT22;4156;50.908;6.974;2023-02-28T06:04:19;2.20;99.90
8231;DHT22;4156;50.908;6.974;2023-02-28T06:06:46;2.20;99.90
8231;DHT22;4156;50.908;6.974;2023-02-28T06:09:12;2.20;99.90
8231;DHT22;4156;50.908;6.974;2023-02-28T06:11:38;2.30;99.90
8231;DHT22;4156;50.908;6.974;2023-02-28T06:14:04;2.20;99.90
8231;DHT22;4156;50.908;6.974;2023-02-28T06:16:32;2.20;99.90
8231;DHT22;4156;50.908;6.974;2023-02-28T06:18:59;2.20;99.90
8231;DHT22;4156;50.908;6.974;2023-02-28T06:21:25;2.20;99.90
8231;DHT22;4156;50.908;6.974;2023-02-28T06:23:51;2.20;99.90
8231;DHT22;4156;50.908;6.974;2023-02-28T06:26:16;2.30;99.90
8231;DHT22;4156;50.908;6.974;2023-02-28T06:28:42;2.20;99.90
8231;DHT22;4156;50.908;6.974;2023-02-28T06:31:13;2.20;99.90
8231;DHT22;4156;50.908;6.974;2023-02-28T06:33:40;2.20;99.90
8231;DHT22;4156;50.908;6.974;2023-02-28T06:36:07;2.30;99.90
8231;DHT22;4156;50.908;6.974;2023-02-28T06:38:33;2.20;99.90
8231;DHT22;4156;50.908;6.974;2023-02-28T06:41:00;2.20;99.90
8231;DHT22;4156;50.908;6.974;2023-02-28T06:43:31;2.20;99.90
8231;DHT22;4156;50.908;6.974;2023-02-28T06:46:01;2.20;99.90
8231;DHT22;4156;50.908;6.974;2023-02-28T06:48:27;2.20;99.90
8231;DHT22;4156;50.908;6.974;2023-02-28T06:51:04;2.20;99.90
8231;DHT22;4156;50.908;6.974;2023-02-28T06:53:30;2.20;99.90
8231;DHT22;4156;50.908;6.974;2023-02-28T06:55:56;2.20;99.90
8231;DHT22;4156;50.908;6.974;2023-02-28T06:58:21;2.20;99.90
8231;DHT22;4156;50.908;6.974;2023-02-28T07:00:51;2.30;99.90
8231;DHT22;4156;50.908;6.974;2023-02-28T07:03:17;2.30;99.90
8231;DHT22;4156;50.908;6.974;2023-02-28T07:05:43;2.30;99.90
8231;DHT22;4156;50.908;6.974;2023-02-28T07:08:09;2.30;99.90
8231;DHT22;4156;50.908;6.974;2023-02-28T07:10:36;2.30;99.90
8231;DHT22;4156;50.908;6.974;2023-02-28T07:13:04;2.30;99.90
8231;DHT22;4156;50.908;6.974;2023-02-28T07:15:29;2.30;99.90
8231;DHT22;4156;50.908;6.974;2023-02-28T07:17:55;2.30;99.90
8231;DHT22;4156;50.908;6.974;2023-02-28T07:20:22;2.30;99.90
8231;DHT22;4156;50.908;6.974;2023-02-28T07:22:48;2.30;99.90
8231;DHT22;4156;50.908;6.974;2023-02-28T07:25:21;2.30;99.90
8231;DHT22;4156;50.908;6.974;2023-02-28T07:27:46;2.40;99.90
8231;DHT22;4156;50.908;6.974;2023-02-28T07:30:12;2.40;99.90
8231;DHT22;4156;50.908;6.974;2023-02-28T07:32:37;2.50;99.90
8231;DHT22;4156;50.908;6.974;2023-02-28T07:35:03;2.50;99.90
8231;DHT22;4156;50.908;6.974;2023-02-28T07:37:29;2.50;99.90
8231;DHT22;4156;50.908;6.974;2023-02-28T07:39:56;2.60;99.90
8231;DHT22;4156;50.908;6.974;2023-02-28T07:42:22;2.70;99.90
8231;DHT22;4156;50.908;6.974;2023-02-28T07:44:48;2.70;99.90
8231;DHT22;4156;50.908;6.974;2023-02-28T07:47:13;2.80;99.90
8231;DHT22;4156;50.908;6.974;2023-02-28T07:49:39;2.80;99.90
8231;DHT22;4156;50.908;6.974;2023-02-28T07:52:06;2.90;99.90
8231;DHT22;4156;50.908;6.974;2023-02-28T07:54:33;2.90;99.90
8231;DHT22;4156;50.908;6.974;2023-02-28T07:56:58;3.00;99.90
8231;DHT22;4156;50.908;6.974;2023-02-28T07:59:24;3.10;99.90
8231;DHT22;4156;50.908;6.974;2023-02-28T08:01:49;3.10;99.90
8231;DHT22;4156;50.908;6.974;2023-02-28T08:04:18;3.20;99.90
8231;DHT22;4156;50.908;6.974;2023-02-28T08:06:44;3.20;99.90
8231;DHT22;4156;50.908;6.974;2023-02-28T08:09:09;3.30;99.90
8231;DHT22;4156;50.908;6.974;2023-02-28T08:11:35;3.30;99.90
8231;DHT22;4156;50.908;6.974;2023-02-28T08:14:01;3.40;99.90
8231;DHT22;4156;50.908;6.974;2023-02-28T08:16:27;3.40;99.90
8231;DHT22;4156;50.908;6.974;2023-02-28T08:18:52;3.40;99.90
8231;DHT22;4156;50.908;6.974;2023-02-28T08:21:19;3.40;99.90
8231;DHT22;4156;50.908;6.974;2023-02-28T08:23:50;3.50;99.90
8231;DHT22;4156;50.908;6.974;2023-02-28T08:26:17;3.50;99.90
8231;DHT22;4156;50.908;6.974;2023-02-28T08:28:43;3.50;99.90
8231;DHT22;4156;50.908;6.974;2023-02-28T08:31:11;3.60;99.90
8231;DHT22;4156;50.908;6.974;2023-02-28T08:33:37;3.60;99.90
8231;DHT22;4156;50.908;6.974;2023-02-28T08:36:05;3.60;99.90
8231;DHT22;4156;50.908;6.974;2023-02-28T08:38:31;3.70;99.90
8231;DHT22;4156;50.908;6.974;2023-02-28T08:41:01;3.70;99.90
8231;DHT22;4156;50.908;6.974;2023-02-28T08:43:28;3.70;99.90
8231;DHT22;4156;50.908;6.974;2023-02-28T08:45:54;3.70;99.90
8231;DHT22;4156;50.908;6.974;2023-02-28T08:48:28;3.80;99.90
8231;DHT22;4156;50.908;6.974;2023-02-28T08:50:58;3.80;99.90
8231;DHT22;4156;50.908;6.974;2023-02-28T08:53:24;3.90;99.90
8231;DHT22;4156;50.908;6.974;2023-02-28T08:56:05;3.90;99.90
8231;DHT22;4156;50.908;6.974;2023-02-28T08:58:30;3.90;99.90
8231;DHT22;4156;50.908;6.974;2023-02-28T09:00:56;4.00;99.90
8231;DHT22;4156;50.908;6.974;2023-02-28T09:03:22;4.00;99.90
8231;DHT22;4156;50.908;6.974;2023-02-28T09:05:59;4.00;99.90
8231;DHT22;4156;50.908;6.974;2023-02-28T09:08:27;4.00;99.90
8231;DHT22;4156;50.908;6.974;2023-02-28T09:10:52;4.10;99.90
8231;DHT22;4156;50.908;6.974;2023-02-28T09:13:19;4.10;99.90
8231;DHT22;4156;50.908;6.974;2023-02-28T09:15:45;4.10;99.90
8231;DHT22;4156;50.908;6.974;2023-02-28T09:18:11;4.10;99.90
8231;DHT22;4156;50.908;6.974;2023-02-28T09:20:40;4.10;99.90
8231;DHT22;4156;50.908;6.974;2023-02-28T09:23:07;4.10;99.90
8231;DHT22;4156;50.908;6.974;2023-02-28T09:25:34;4.20;99.90
8231;DHT22;4156;50.908;6.974;2023-02-28T09:27:59;4.20;99.90
8231;DHT22;4156;50.908;6.974;2023-02-28T09:30:25;4.20;99.90
8231;DHT22;4156;50.908;6.974;2023-02-28T09:32:51;4.30;99.90
8231;DHT22;4156;50.908;6.974;2023-02-28T09:35:18;4.30;99.90
8231;DHT22;4156;50.908;6.974;2023-02-28T09:37:44;4.40;99.90
8231;DHT22;4156;50.908;6.974;2023-02-28T09:40:11;4.40;99.90
8231;DHT22;4156;50.908;6.974;2023-02-28T09:42:37;4.40;99.90
8231;DHT22;4156;50.908;6.974;2023-02-28T09:45:13;4.40;99.90
8231;DHT22;4156;50.908;6.974;2023-02-28T09:47:43;4.40;99.90
8231;DHT22;4156;50.908;6.974;2023-02-28T09:50:23;4.40;99.90
8231;DHT22;4156;50.908;6.974;2023-02-28T09:52:55;4.40;99.90
8231;DHT22;4156;50.908;6.974;2023-02-28T09:55:42;4.50;99.90
8231;DHT22;4156;50.908;6.974;2023-02-28T09:58:28;4.50;99.90
8231;DHT22;4156;50.908;6.974;2023-02-28T10:01:45;4.50;99.90
8231;DHT22;4156;50.908;6.974;2023-02-28T10:03:57;4.50;99.90
8231;DHT22;4156;50.908;6.974;2023-02-28T10:06:29;4.50;99.90
8231;DHT22;4156;50.908;6.974;2023-02-28T10:08:58;4.50;99.90
8231;DHT22;4156;50.908;6.974;2023-02-28T10:11:25;4.60;99.90
8231;DHT22;4156;50.908;6.974;2023-02-28T10:13:59;4.60;99.90
8231;DHT22;4156;50.908;6.974;2023-02-28T10:16:34;4.60;99.90
8231;DHT22;4156;50.908;6.974;2023-02-28T10:19:20;4.60;99.90
8231;DHT22;4156;50.908;6.974;2023-02-28T10:22:17;4.60;99.90
8231;DHT22;4156;50.908;6.974;2023-02-28T10:24:52;4.60;99.90
8231;DHT22;4156;50.908;6.974;2023-02-28T10:27:19;4.60;99.90
8231;DHT22;4156;50.908;6.974;2023-02-28T10:29:46;4.60;99.90
8231;DHT22;4156;50.908;6.974;2023-02-28T10:32:17;4.70;99.90
8231;DHT22;4156;50.908;6.974;2023-02-28T10:34:43;4.70;99.90
8231;DHT22;4156;50.908;6.974;2023-02-28T10:37:10;4.70;99.90
8231;DHT22;4156;50.908;6.974;2023-02-28T10:39:40;4.70;99.90
8231;DHT22;4156;50.908;6.974;2023-02-28T10:44:44;4.80;99.90
8231;DHT22;4156;50.908;6.974;2023-02-28T10:47:19;4.80;99.90
8231;DHT22;4156;50.908;6.974;2023-02-28T10:49:49;4.80;99.90
8231;DHT22;4156;50.908;6.974;2023-02-28T10:52:36;4.80;99.90
8231;DHT22;4156;50.908;6.974;2023-02-28T10:55:23;4.80;99.90
8231;DHT22;4156;50.908;6.974;2023-02-28T10:57:51;4.80;99.90
8231;DHT22;4156;50.908;6.974;2023-02-28T11:00:22;4.80;99.90
8231;DHT22;4156;50.908;6.974;2023-02-28T11:02:48;4.80;99.90
8231;DHT22;4156;50.908;6.974;2023-02-28T11:05:31;4.80;99.90
8231;DHT22;4156;50.908;6.974;2023-02-28T11:08:10;4.80;99.90
8231;DHT22;4156;50.908;6.974;2023-02-28T11:10:37;4.90;99.90
8231;DHT22;4156;50.908;6.974;2023-02-28T11:13:03;4.90;99.90
8231;DHT22;4156;50.908;6.974;2023-02-28T11:15:31;4.90;99.90
8231;DHT22;4156;50.908;6.974;2023-02-28T11:18:00;4.90;99.90
8231;DHT22;4156;50.908;6.974;2023-02-28T11:20:30;4.90;99.90
8231;DHT22;4156;50.908;6.974;2023-02-28T11:22:57;4.90;99.90
8231;DHT22;4156;50.908;6.974;2023-02-28T11:25:31;5.00;99.90
8231;DHT22;4156;50.908;6.974;2023-02-28T11:28:03;4.90;99.90
8231;DHT22;4156;50.908;6.974;2023-02-28T11:30:39;5.00;99.90
8231;DHT22;4156;50.908;6.974;2023-02-28T11:33:26;5.00;99.90
8231;DHT22;4156;50.908;6.974;2023-02-28T11:35:53;5.00;99.90
8231;DHT22;4156;50.908;6.974;2023-02-28T11:38:20;5.00;99.90
8231;DHT22;4156;50.908;6.974;2023-02-28T11:46:35;5.10;99.90
8231;DHT22;4156;50.908;6.974;2023-02-28T11:49:29;5.20;99.90
8231;DHT22;4156;50.908;6.974;2023-02-28T11:58:11;5.20;99.90
8231;DHT22;4156;50.908;6.974;2023-02-28T12:03:26;5.30;99.90
8231;DHT22;4156;50.908;6.974;2023-02-28T12:06:06;5.30;99.90
8231;DHT22;4156;50.908;6.974;2023-02-28T12:08:43;5.30;99.90
8231;DHT22;4156;50.908;6.974;2023-02-28T12:13:56;5.30;99.90
8231;DHT22;4156;50.908;6.974;2023-02-28T12:17:00;5.30;99.90
8231;DHT22;4156;50.908;6.974;2023-02-28T12:19:44;5.30;99.90
8231;DHT22;4156;50.908;6.974;2023-02-28T12:22:27;5.30;99.90
8231;DHT22;4156;50.908;6.974;2023-02-28T12:27:37;5.30;99.90
8231;DHT22;4156;50.908;6.974;2023-02-28T12:30:24;5.40;99.90
8231;DHT22;4156;50.908;6.974;2023-02-28T12:33:03;5.40;99.90
8231;DHT22;4156;50.908;6.974;2023-02-28T12:35:36;5.40;99.90
8231;DHT22;4156;50.908;6.974;2023-02-28T12:38:11;5.40;99.90
8231;DHT22;4156;50.908;6.974;2023-02-28T12:41:03;5.40;99.90
8231;DHT22;4156;50.908;6.974;2023-02-28T12:43:34;5.40;99.90
8231;DHT22;4156;50.908;6.974;2023-02-28T12:48:37;5.50;99.90
8231;DHT22;4156;50.908;6.974;2023-02-28T12:51:06;5.50;99.90
8231;DHT22;4156;50.908;6.974;2023-02-28T12:56:30;5.50;99.90
8231;DHT22;4156;50.908;6.974;2023-02-28T12:59:03;5.50;99.90
8231;DHT22;4156;50.908;6.974;2023-02-28T13:04:41;5.50;99.90
8231;DHT22;4156;50.908;6.974;2023-02-28T13:10:05;5.60;99.90
8231;DHT22;4156;50.908;6.974;2023-02-28T13:12:33;5.60;99.90
8231;DHT22;4156;50.908;6.974;2023-02-28T13:15:21;5.60;99.90
8231;DHT22;4156;50.908;6.974;2023-02-28T13:17:51;5.60;99.90
8231;DHT22;4156;50.908;6.974;2023-02-28T13:20:29;5.60;99.90
8231;DHT22;4156;50.908;6.974;2023-02-28T13:22:56;5.60;99.90
8231;DHT22;4156;50.908;6.974;2023-02-28T13:27:50;5.70;99.90
8231;DHT22;4156;50.908;6.974;2023-02-28T13:35:46;5.60;99.90
8231;DHT22;4156;50.908;6.974;2023-02-28T13:38:32;5.70;99.90
8231;DHT22;4156;50.908;6.974;2023-02-28T13:49:27;5.70;99.90
8231;DHT22;4156;50.908;6.974;2023-02-28T14:05:38;5.80;99.90
8231;DHT22;4156;50.908;6.974;2023-02-28T14:08:19;5.80;99.90
8231;DHT22;4156;50.908;6.974;2023-02-28T14:10:48;5.80;99.90
8231;DHT22;4156;50.908;6.974;2023-02-28T14:16:02;5.80;99.90
8231;DHT22;4156;50.908;6.974;2023-02-28T14:18:36;5.80;99.90
8231;DHT22;4156;50.908;6.974;2023-02-28T14:27:14;5.80;99.90
8231;DHT22;4156;50.908;6.974;2023-02-28T14:33:14;5.80;99.90
8231;DHT22;4156;50.908;6.974;2023-02-28T14:36:24;5.80;99.90
8231;DHT22;4156;50.908;6.974;2023-02-28T14:38:57;5.80;99.90
8231;DHT22;4156;50.908;6.974;2023-02-28T14:43:58;5.90;99.90
8231;DHT22;4156;50.908;6.974;2023-02-28T14:46:29;5.90;99.90
8231;DHT22;4156;50.908;6.974;2023-02-28T14:49:00;5.90;99.90
8231;DHT22;4156;50.908;6.974;2023-02-28T14:51:26;5.90;99.90
8231;DHT22;4156;50.908;6.974;2023-02-28T14:53:57;5.90;99.90
8231;DHT22;4156;50.908;6.974;2023-02-28T14:56:30;5.90;99.90
8231;DHT22;4156;50.908;6.974;2023-02-28T14:58:58;5.90;99.90
8231;DHT22;4156;50.908;6.974;2023-02-28T15:01:25;5.90;99.90
8231;DHT22;4156;50.908;6.974;2023-02-28T15:04:03;5.90;99.90
8231;DHT22;4156;50.908;6.974;2023-02-28T15:06:30;5.90;99.90
8231;DHT22;4156;50.908;6.974;2023-02-28T15:09:14;6.10;99.90
8231;DHT22;4156;50.908;6.974;2023-02-28T15:11:40;6.00;99.90
8231;DHT22;4156;50.908;6.974;2023-02-28T15:14:06;6.00;99.90
8231;DHT22;4156;50.908;6.974;2023-02-28T15:16:35;6.00;99.90
8231;DHT22;4156;50.908;6.974;2023-02-28T15:19:11;6.00;99.90
8231;DHT22;4156;50.908;6.974;2023-02-28T15:21:42;6.10;99.90
8231;DHT22;4156;50.908;6.974;2023-02-28T15:24:31;6.00;99.90
8231;DHT22;4156;50.908;6.974;2023-02-28T15:27:00;6.00;99.90
8231;DHT22;4156;50.908;6.974;2023-02-28T15:29:30;6.10;99.90
8231;DHT22;4156;50.908;6.974;2023-02-28T15:32:01;6.00;99.90
8231;DHT22;4156;50.908;6.974;2023-02-28T15:34:35;6.10;99.90
8231;DHT22;4156;50.908;6.974;2023-02-28T15:37:01;6.10;99.90
8231;DHT22;4156;50.908;6.974;2023-02-28T15:39:28;6.10;99.90
8231;DHT22;4156;50.908;6.974;2023-02-28T15:42:19;6.10;99.90
8231;DHT22;4156;50.908;6.974;2023-02-28T15:44:45;6.10;99.90
8231;DHT22;4156;50.908;6.974;2023-02-28T15:47:26;6.10;99.90
8231;DHT22;4156;50.908;6.974;2023-02-28T15:49:57;6.10;99.90
8231;DHT22;4156;50.908;6.974;2023-02-28T15:52:42;6.10;99.90
8231;DHT22;4156;50.908;6.974;2023-02-28T15:55:21;6.10;99.90
8231;DHT22;4156;50.908;6.974;2023-02-28T15:57:50;6.10;99.90
8231;DHT22;4156;50.908;6.974;2023-02-28T16:00:20;6.10;99.90
8231;DHT22;4156;50.908;6.974;2023-02-28T16:02:47;6.10;99.90
8231;DHT22;4156;50.908;6.974;2023-02-28T16:05:30;6.10;99.90
8231;DHT22;4156;50.908;6.974;2023-02-28T16:08:06;6.10;99.90
8231;DHT22;4156;50.908;6.974;2023-02-28T16:10:36;6.10;99.90
8231;DHT22;4156;50.908;6.974;2023-02-28T16:13:02;6.20;99.90
8231;DHT22;4156;50.908;6.974;2023-02-28T16:15:30;6.10;99.90
8231;DHT22;4156;50.908;6.974;2023-02-28T16:18:00;6.20;99.90
8231;DHT22;4156;50.908;6.974;2023-02-28T16:20:28;6.20;99.90
8231;DHT22;4156;50.908;6.974;2023-02-28T16:22:54;6.20;99.90
8231;DHT22;4156;50.908;6.974;2023-02-28T16:25:24;6.20;99.90
8231;DHT22;4156;50.908;6.974;2023-02-28T16:27:53;6.10;99.90
8231;DHT22;4156;50.908;6.974;2023-02-28T16:30:22;6.20;99.90
8231;DHT22;4156;50.908;6.974;2023-02-28T16:32:48;6.20;99.90
8231;DHT22;4156;50.908;6.974;2023-02-28T16:35:14;6.20;99.90
8231;DHT22;4156;50.908;6.974;2023-02-28T16:37:40;6.20;99.90
8231;DHT22;4156;50.908;6.974;2023-02-28T16:40:08;6.20;99.90
8231;DHT22;4156;50.908;6.974;2023-02-28T16:42:34;6.20;99.90
8231;DHT22;4156;50.908;6.974;2023-02-28T16:45:00;6.20;99.90
8231;DHT22;4156;50.908;6.974;2023-02-28T16:47:25;6.20;99.90
8231;DHT22;4156;50.908;6.974;2023-02-28T16:49:52;6.20;99.90
8231;DHT22;4156;50.908;6.974;2023-02-28T16:52:18;6.20;99.90
8231;DHT22;4156;50.908;6.974;2023-02-28T16:54:43;6.20;99.90
8231;DHT22;4156;50.908;6.974;2023-02-28T16:57:22;6.20;99.90
8231;DHT22;4156;50.908;6.974;2023-02-28T16:59:49;6.20;99.90
8231;DHT22;4156;50.908;6.974;2023-02-28T17:02:17;6.20;99.90
8231;DHT22;4156;50.908;6.974;2023-02-28T17:04:44;6.20;99.90
8231;DHT22;4156;50.908;6.974;2023-02-28T17:07:14;6.20;99.90
8231;DHT22;4156;50.908;6.974;2023-02-28T17:09:41;6.20;99.90
8231;DHT22;4156;50.908;6.974;2023-02-28T17:12:07;6.20;99.90
8231;DHT22;4156;50.908;6.974;2023-02-28T17:14:33;6.20;99.90
8231;DHT22;4156;50.908;6.974;2023-02-28T17:16:58;6.20;99.90
8231;DHT22;4156;50.908;6.974;2023-02-28T17:19:24;6.20;99.90
8231;DHT22;4156;50.908;6.974;2023-02-28T17:21:49;6.20;99.90
8231;DHT22;4156;50.908;6.974;2023-02-28T17:24:15;6.20;99.90
8231;DHT22;4156;50.908;6.974;2023-02-28T17:26:41;6.20;99.90
8231;DHT22;4156;50.908;6.974;2023-02-28T17:29:19;6.20;99.90
8231;DHT22;4156;50.908;6.974;2023-02-28T17:31:44;6.20;99.90
8231;DHT22;4156;50.908;6.974;2023-02-28T17:34:10;6.20;99.90
8231;DHT22;4156;50.908;6.974;2023-02-28T17:36:36;6.20;99.90
8231;DHT22;4156;50.908;6.974;2023-02-28T17:39:03;6.20;99.90
8231;DHT22;4156;50.908;6.974;2023-02-28T17:41:29;6.20;99.90
8231;DHT22;4156;50.908;6.974;2023-02-28T17:43:56;6.20;99.90
8231;DHT22;4156;50.908;6.974;2023-02-28T17:46:23;6.20;99.90
8231;DHT22;4156;50.908;6.974;2023-02-28T17:48:51;6.20;99.90
8231;DHT22;4156;50.908;6.974;2023-02-28T17:51:22;6.20;99.90
8231;DHT22;4156;50.908;6.974;2023-02-28T17:53:48;6.20;99.90
8231;DHT22;4156;50.908;6.974;2023-02-28T17:56:25;6.20;99.90
8231;DHT22;4156;50.908;6.974;2023-02-28T17:58:53;6.10;99.90
8231;DHT22;4156;50.908;6.974;2023-02-28T18:01:19;6.20;99.90
8231;DHT22;4156;50.908;6.974;2023-02-28T18:03:45;6.10;99.90
8231;DHT22;4156;50.908;6.974;2023-02-28T18:06:21;6.10;99.90
8231;DHT22;4156;50.908;6.974;2023-02-28T18:08:47;6.10;99.90
8231;DHT22;4156;50.908;6.974;2023-02-28T18:11:14;6.10;99.90
8231;DHT22;4156;50.908;6.974;2023-02-28T18:13:48;6.10;99.90